PWSweather.com
Personal Weather Stations
Station Observations
ISYDDANM23
Felsted, AabenraaDK 6200

FelstedAabenraaDK 6200

Lat: 54.977066, Lon: 9.507192

Elevation: 135

Station Type: Davis Vantage Pro 2 Plus 24H

http://www.valkaer.dk

High Low Average
Temperature 65.9°F18.8°C 54.0°F12.2°C 60.6°F15.9°C
Dew Point 60.9°F16.1°C 51.7°F10.9°C 58.0°F14.4°C
Winds 11.5 mph 18.5 kmh Calm Calm 4.0 mph SE6.4 kmh SE
Wind Gusts 16.1 mph25.9 kmh -- 6.0 mph9.7 kmh
Humidity 94% 84% 91%
Pressure 29.93 in1013.5 mb 29.69 in1005.4 mb -
Precipitation 0.39 in9.9 mm - -
Hour Temp Dew Point Humidity Winds Wind Gusts Pressure Precip Precip Rate Daily Precip Total
12:00 AM 54.0°F12.2°C 51.7°F10.9°C 92% Calm Calm -- 29.92 in1013.2 mb - 0.00 in0.0 mm 0.00 in0.0 mm
12:10 AM 54.6°F12.6°C 52.6°F11.4°C 93% 1.2 mph WSW1.9 kmh WSW 2.3 mph3.7 kmh 29.91 in1012.9 mb - 0.00 in0.0 mm 0.00 in0.0 mm
12:15 AM 54.9°F12.7°C 52.9°F11.6°C 93% 1.2 mph NW1.9 kmh NW 2.3 mph3.7 kmh 29.91 in1012.9 mb - 0.00 in0.0 mm 0.00 in0.0 mm
12:20 AM 55.1°F12.8°C 53.1°F11.7°C 93% 2.3 mph NE3.7 kmh NE 3.5 mph5.6 kmh 29.91 in1012.9 mb - 0.00 in0.0 mm 0.00 in0.0 mm
12:25 AM 55.4°F13.0°C 53.5°F11.9°C 93% 1.2 mph NNE1.9 kmh NNE 3.5 mph5.6 kmh 29.90 in1012.5 mb - 0.00 in0.0 mm 0.00 in0.0 mm
12:30 AM 55.7°F13.2°C 53.7°F12.1°C 93% 1.2 mph NNE1.9 kmh NNE 2.3 mph3.7 kmh 29.90 in1012.5 mb - 0.00 in0.0 mm 0.00 in0.0 mm
12:35 AM 55.7°F13.2°C 53.7°F12.1°C 93% Calm Calm -- 29.90 in1012.5 mb - 0.00 in0.0 mm 0.00 in0.0 mm
12:40 AM 55.7°F13.2°C 53.7°F12.1°C 93% Calm Calm -- 29.90 in1012.5 mb - 0.00 in0.0 mm 0.00 in0.0 mm
12:45 AM 55.6°F13.1°C 53.6°F12.0°C 93% 1.2 mph NE1.9 kmh NE 2.3 mph3.7 kmh 29.90 in1012.5 mb - 0.00 in0.0 mm 0.00 in0.0 mm
12:50 AM 55.9°F13.3°C 53.9°F12.2°C 93% 1.2 mph NE1.9 kmh NE 2.3 mph3.7 kmh 29.90 in1012.5 mb - 0.00 in0.0 mm 0.00 in0.0 mm
12:55 AM 56.1°F13.4°C 54.1°F12.3°C 93% Calm Calm 1.2 mph1.9 kmh 29.91 in1012.9 mb - 0.00 in0.0 mm 0.00 in0.0 mm
01:00 AM 56.2°F13.4°C 54.2°F12.3°C 93% 1.2 mph NE1.9 kmh NE 2.3 mph3.7 kmh 29.92 in1013.2 mb - 0.00 in0.0 mm 0.00 in0.0 mm
01:10 AM 56.1°F13.4°C 54.1°F12.3°C 93% 1.2 mph E1.9 kmh E 3.5 mph5.6 kmh 29.93 in1013.5 mb - 0.00 in0.0 mm 0.00 in0.0 mm
01:15 AM 56.2°F13.4°C 54.2°F12.3°C 93% 1.2 mph E1.9 kmh E 3.5 mph5.6 kmh 29.93 in1013.5 mb - 0.00 in0.0 mm 0.00 in0.0 mm
01:20 AM 56.4°F13.6°C 54.4°F12.4°C 93% 1.2 mph E1.9 kmh E 3.5 mph5.6 kmh 29.93 in1013.5 mb - 0.00 in0.0 mm 0.00 in0.0 mm
01:25 AM 56.4°F13.6°C 54.4°F12.4°C 93% 1.2 mph E1.9 kmh E 2.3 mph3.7 kmh 29.93 in1013.5 mb - 0.00 in0.0 mm 0.00 in0.0 mm
01:30 AM 56.4°F13.6°C 54.4°F12.4°C 93% 1.2 mph E1.9 kmh E 1.2 mph1.9 kmh 29.93 in1013.5 mb - 0.00 in0.0 mm 0.00 in0.0 mm
01:35 AM 56.5°F13.6°C 54.5°F12.5°C 93% 1.2 mph E1.9 kmh E 2.3 mph3.7 kmh 29.93 in1013.5 mb - 0.00 in0.0 mm 0.00 in0.0 mm
01:40 AM 56.5°F13.6°C 54.5°F12.5°C 93% 1.2 mph NE1.9 kmh NE 2.3 mph3.7 kmh 29.93 in1013.5 mb - 0.00 in0.0 mm 0.00 in0.0 mm
01:45 AM 56.6°F13.7°C 54.6°F12.6°C 93% 1.2 mph NE1.9 kmh NE 2.3 mph3.7 kmh 29.93 in1013.5 mb - 0.00 in0.0 mm 0.00 in0.0 mm
01:50 AM 56.7°F13.7°C 54.7°F12.6°C 93% 1.2 mph NE1.9 kmh NE 1.2 mph1.9 kmh 29.93 in1013.5 mb - 0.00 in0.0 mm 0.00 in0.0 mm
01:55 AM 56.9°F13.8°C 55.2°F12.9°C 94% 1.2 mph NE1.9 kmh NE 2.3 mph3.7 kmh 29.92 in1013.2 mb - 0.00 in0.0 mm 0.00 in0.0 mm
02:00 AM 57.0°F13.9°C 55.0°F12.8°C 93% 2.3 mph NNW3.7 kmh NNW 3.5 mph5.6 kmh 29.92 in1013.2 mb - 0.00 in0.0 mm 0.00 in0.0 mm
02:10 AM 57.1°F13.9°C 55.1°F12.8°C 93% 1.2 mph NW1.9 kmh NW 2.3 mph3.7 kmh 29.92 in1013.2 mb - 0.00 in0.0 mm 0.00 in0.0 mm
02:15 AM 57.1°F13.9°C 55.1°F12.8°C 93% 1.2 mph NW1.9 kmh NW 2.3 mph3.7 kmh 29.93 in1013.5 mb - 0.00 in0.0 mm 0.00 in0.0 mm
02:20 AM 57.0°F13.9°C 55.0°F12.8°C 93% Calm Calm -- 29.93 in1013.5 mb - 0.00 in0.0 mm 0.00 in0.0 mm
02:25 AM 57.1°F13.9°C 55.1°F12.8°C 93% Calm Calm 1.2 mph1.9 kmh 29.92 in1013.2 mb - 0.00 in0.0 mm 0.00 in0.0 mm
02:30 AM 57.1°F13.9°C 55.1°F12.8°C 93% 1.2 mph NW1.9 kmh NW 1.2 mph1.9 kmh 29.92 in1013.2 mb - 0.00 in0.0 mm 0.00 in0.0 mm
02:35 AM 57.1°F13.9°C 55.1°F12.8°C 93% Calm Calm 1.2 mph1.9 kmh 29.92 in1013.2 mb - 0.00 in0.0 mm 0.00 in0.0 mm
02:40 AM 57.1°F13.9°C 55.1°F12.8°C 93% 1.2 mph NW1.9 kmh NW 2.3 mph3.7 kmh 29.92 in1013.2 mb - 0.00 in0.0 mm 0.00 in0.0 mm
02:45 AM 57.0°F13.9°C 55.0°F12.8°C 93% 1.2 mph NW1.9 kmh NW 1.2 mph1.9 kmh 29.93 in1013.5 mb - 0.00 in0.0 mm 0.00 in0.0 mm
02:50 AM 57.1°F13.9°C 55.1°F12.8°C 93% 1.2 mph NW1.9 kmh NW 1.2 mph1.9 kmh 29.92 in1013.2 mb - 0.00 in0.0 mm 0.00 in0.0 mm
02:55 AM 57.0°F13.9°C 55.0°F12.8°C 93% Calm Calm -- 29.92 in1013.2 mb - 0.00 in0.0 mm 0.00 in0.0 mm
03:00 AM 57.1°F13.9°C 55.1°F12.8°C 93% Calm Calm -- 29.91 in1012.9 mb - 0.00 in0.0 mm 0.00 in0.0 mm
03:10 AM 57.2°F14.0°C 55.2°F12.9°C 93% Calm Calm -- 29.91 in1012.9 mb - 0.00 in0.0 mm 0.00 in0.0 mm
03:15 AM 57.2°F14.0°C 55.2°F12.9°C 93% Calm Calm 1.2 mph1.9 kmh 29.90 in1012.5 mb - 0.00 in0.0 mm 0.00 in0.0 mm
03:20 AM 57.3°F14.1°C 55.3°F12.9°C 93% 1.2 mph N1.9 kmh N 2.3 mph3.7 kmh 29.90 in1012.5 mb - 0.00 in0.0 mm 0.00 in0.0 mm
03:25 AM 57.3°F14.1°C 55.3°F12.9°C 93% Calm Calm 1.2 mph1.9 kmh 29.89 in1012.2 mb - 0.00 in0.0 mm 0.00 in0.0 mm
03:30 AM 57.4°F14.1°C 55.7°F13.2°C 94% 1.2 mph E1.9 kmh E 3.5 mph5.6 kmh 29.90 in1012.5 mb - 0.00 in0.0 mm 0.00 in0.0 mm
03:35 AM 57.5°F14.2°C 55.8°F13.2°C 94% 1.2 mph ENE1.9 kmh ENE 2.3 mph3.7 kmh 29.90 in1012.5 mb - 0.00 in0.0 mm 0.00 in0.0 mm
03:40 AM 57.5°F14.2°C 55.8°F13.2°C 94% 1.2 mph ENE1.9 kmh ENE 2.3 mph3.7 kmh 29.89 in1012.2 mb - 0.00 in0.0 mm 0.00 in0.0 mm
03:45 AM 57.6°F14.2°C 55.9°F13.3°C 94% Calm Calm 1.2 mph1.9 kmh 29.89 in1012.2 mb - 0.00 in0.0 mm 0.00 in0.0 mm
03:50 AM 57.6°F14.2°C 55.9°F13.3°C 94% 2.3 mph ENE3.7 kmh ENE 3.5 mph5.6 kmh 29.89 in1012.2 mb - 0.00 in0.0 mm 0.00 in0.0 mm
03:55 AM 57.6°F14.2°C 55.9°F13.3°C 94% 1.2 mph NE1.9 kmh NE 2.3 mph3.7 kmh 29.89 in1012.2 mb - 0.00 in0.0 mm 0.00 in0.0 mm
04:00 AM 57.7°F14.3°C 56.0°F13.3°C 94% 2.3 mph NE3.7 kmh NE 3.5 mph5.6 kmh 29.88 in1011.9 mb - 0.00 in0.0 mm 0.00 in0.0 mm
04:10 AM 57.7°F14.3°C 55.7°F13.2°C 93% 2.3 mph NNE3.7 kmh NNE 4.6 mph7.4 kmh 29.87 in1011.5 mb - 0.00 in0.0 mm 0.00 in0.0 mm
04:15 AM 57.8°F14.3°C 55.8°F13.2°C 93% 4.6 mph NE7.4 kmh NE 4.6 mph7.4 kmh 29.85 in1010.8 mb - 0.00 in0.0 mm 0.00 in0.0 mm
04:20 AM 57.9°F14.4°C 55.9°F13.3°C 93% 3.5 mph NNE5.6 kmh NNE 8.1 mph13.0 kmh 29.85 in1010.8 mb - 0.00 in0.0 mm 0.00 in0.0 mm
04:25 AM 57.9°F14.4°C 55.9°F13.3°C 93% 4.6 mph NNE7.4 kmh NNE 9.2 mph14.8 kmh 29.84 in1010.5 mb - 0.00 in0.0 mm 0.00 in0.0 mm
04:30 AM 57.9°F14.4°C 55.9°F13.3°C 93% 5.8 mph NNE9.3 kmh NNE 10.4 mph16.7 kmh 29.83 in1010.2 mb - 0.00 in0.0 mm 0.00 in0.0 mm
04:35 AM 57.9°F14.4°C 55.9°F13.3°C 93% 6.9 mph NNE11.1 kmh NNE 10.4 mph16.7 kmh 29.83 in1010.2 mb - 0.00 in0.0 mm 0.00 in0.0 mm
04:40 AM 57.9°F14.4°C 55.9°F13.3°C 93% 5.8 mph NNE9.3 kmh NNE 11.5 mph18.5 kmh 29.82 in1009.8 mb - 0.00 in0.0 mm 0.00 in0.0 mm
04:45 AM 58.1°F14.5°C 56.4°F13.6°C 94% 6.9 mph N11.1 kmh N 11.5 mph18.5 kmh 29.81 in1009.5 mb - 0.00 in0.0 mm 0.00 in0.0 mm
04:50 AM 58.2°F14.6°C 56.5°F13.6°C 94% 5.8 mph N9.3 kmh N 11.5 mph18.5 kmh 29.81 in1009.5 mb - 0.00 in0.0 mm 0.00 in0.0 mm
04:55 AM 58.3°F14.6°C 56.6°F13.7°C 94% 2.3 mph NW3.7 kmh NW 3.5 mph5.6 kmh 29.83 in1010.2 mb - 0.00 in0.0 mm 0.00 in0.0 mm
05:00 AM 58.5°F14.7°C 56.8°F13.8°C 94% 3.5 mph W5.6 kmh W 5.8 mph9.3 kmh 29.84 in1010.5 mb - 0.00 in0.0 mm 0.00 in0.0 mm
05:10 AM 58.5°F14.7°C 56.8°F13.8°C 94% 4.6 mph NW7.4 kmh NW 5.8 mph9.3 kmh 29.82 in1009.8 mb - 0.00 in0.0 mm 0.00 in0.0 mm
05:15 AM 58.6°F14.8°C 56.9°F13.8°C 94% 3.5 mph NNW5.6 kmh NNW 4.6 mph7.4 kmh 29.82 in1009.8 mb - 0.00 in0.0 mm 0.00 in0.0 mm
05:20 AM 58.7°F14.8°C 57.0°F13.9°C 94% 3.5 mph NW5.6 kmh NW 4.6 mph7.4 kmh 29.82 in1009.8 mb - 0.00 in0.0 mm 0.00 in0.0 mm
05:25 AM 58.8°F14.9°C 57.0°F13.9°C 94% 4.6 mph NW7.4 kmh NW 6.9 mph11.1 kmh 29.82 in1009.8 mb - 0.00 in0.0 mm 0.00 in0.0 mm
05:30 AM 59.0°F15.0°C 57.2°F14.0°C 94% 1.2 mph NNW1.9 kmh NNW 3.5 mph5.6 kmh 29.81 in1009.5 mb - 0.00 in0.0 mm 0.00 in0.0 mm
05:35 AM 59.1°F15.1°C 57.4°F14.1°C 94% 3.5 mph NE5.6 kmh NE 4.6 mph7.4 kmh 29.82 in1009.8 mb - 0.00 in0.0 mm 0.00 in0.0 mm
05:40 AM 59.2°F15.1°C 57.5°F14.2°C 94% 3.5 mph NE5.6 kmh NE 4.6 mph7.4 kmh 29.82 in1009.8 mb - 0.00 in0.0 mm 0.00 in0.0 mm
05:45 AM 59.1°F15.1°C 57.4°F14.1°C 94% 2.3 mph NNE3.7 kmh NNE 4.6 mph7.4 kmh 29.82 in1009.8 mb - 0.00 in0.0 mm 0.00 in0.0 mm
05:50 AM 59.1°F15.1°C 57.4°F14.1°C 94% 3.5 mph N5.6 kmh N 3.5 mph5.6 kmh 29.82 in1009.8 mb - 0.00 in0.0 mm 0.00 in0.0 mm
05:55 AM 59.2°F15.1°C 57.5°F14.2°C 94% 2.3 mph NNE3.7 kmh NNE 4.6 mph7.4 kmh 29.82 in1009.8 mb - 0.00 in0.0 mm 0.00 in0.0 mm
06:00 AM 59.3°F15.2°C 57.5°F14.2°C 94% 2.3 mph NE3.7 kmh NE 2.3 mph3.7 kmh 29.82 in1009.8 mb - 0.00 in0.0 mm 0.00 in0.0 mm
06:10 AM 59.4°F15.2°C 57.7°F14.3°C 94% 5.8 mph N9.3 kmh N 8.1 mph13.0 kmh 29.82 in1009.8 mb - 0.00 in0.0 mm 0.00 in0.0 mm
06:15 AM 59.4°F15.2°C 57.7°F14.3°C 94% 6.9 mph NW11.1 kmh NW 9.2 mph14.8 kmh 29.82 in1009.8 mb - 0.00 in0.0 mm 0.00 in0.0 mm
06:20 AM 59.5°F15.3°C 57.8°F14.3°C 94% 3.5 mph NW5.6 kmh NW 5.8 mph9.3 kmh 29.81 in1009.5 mb - 0.00 in0.0 mm 0.00 in0.0 mm
06:25 AM 59.6°F15.3°C 57.9°F14.4°C 94% 4.6 mph NW7.4 kmh NW 9.2 mph14.8 kmh 29.82 in1009.8 mb - 0.00 in0.0 mm 0.00 in0.0 mm
06:30 AM 59.6°F15.3°C 57.9°F14.4°C 94% 5.8 mph WNW9.3 kmh WNW 8.1 mph13.0 kmh 29.82 in1009.8 mb - 0.00 in0.0 mm 0.00 in0.0 mm
06:35 AM 59.7°F15.4°C 58.0°F14.4°C 94% 6.9 mph NW11.1 kmh NW 8.1 mph13.0 kmh 29.83 in1010.2 mb - 0.00 in0.0 mm 0.00 in0.0 mm
06:40 AM 59.9°F15.5°C 58.2°F14.6°C 94% 4.6 mph NW7.4 kmh NW 5.8 mph9.3 kmh 29.83 in1010.2 mb - 0.00 in0.0 mm 0.00 in0.0 mm
06:45 AM 60.3°F15.7°C 58.6°F14.8°C 94% 4.6 mph NW7.4 kmh NW 8.1 mph13.0 kmh 29.84 in1010.5 mb - 0.00 in0.0 mm 0.00 in0.0 mm
06:50 AM 60.2°F15.7°C 58.5°F14.7°C 94% 3.5 mph NNW5.6 kmh NNW 5.8 mph9.3 kmh 29.83 in1010.2 mb - 0.00 in0.0 mm 0.00 in0.0 mm
06:55 AM 60.4°F15.8°C 58.7°F14.8°C 94% 3.5 mph NW5.6 kmh NW 5.8 mph9.3 kmh 29.84 in1010.5 mb - 0.00 in0.0 mm 0.00 in0.0 mm
07:00 AM 60.4°F15.8°C 58.7°F14.8°C 94% 2.3 mph N3.7 kmh N 4.6 mph7.4 kmh 29.84 in1010.5 mb - 0.00 in0.0 mm 0.00 in0.0 mm
07:10 AM 60.4°F15.8°C 58.7°F14.8°C 94% 2.3 mph NE3.7 kmh NE 4.6 mph7.4 kmh 29.86 in1011.2 mb - 0.00 in0.0 mm 0.00 in0.0 mm
07:15 AM 60.3°F15.7°C 58.6°F14.8°C 94% 3.5 mph N5.6 kmh N 4.6 mph7.4 kmh 29.86 in1011.2 mb - 0.00 in0.0 mm 0.00 in0.0 mm
07:20 AM 60.4°F15.8°C 58.7°F14.8°C 94% 1.2 mph N1.9 kmh N 2.3 mph3.7 kmh 29.86 in1011.2 mb - 0.00 in0.0 mm 0.00 in0.0 mm
07:25 AM 60.5°F15.8°C 58.8°F14.9°C 94% 2.3 mph NNE3.7 kmh NNE 3.5 mph5.6 kmh 29.86 in1011.2 mb - 0.00 in0.0 mm 0.00 in0.0 mm
07:30 AM 60.6°F15.9°C 58.6°F14.8°C 93% 2.3 mph NE3.7 kmh NE 4.6 mph7.4 kmh 29.86 in1011.2 mb - 0.00 in0.0 mm 0.00 in0.0 mm
07:35 AM 60.7°F15.9°C 58.7°F14.8°C 93% 3.5 mph NNE5.6 kmh NNE 3.5 mph5.6 kmh 29.86 in1011.2 mb - 0.00 in0.0 mm 0.00 in0.0 mm
07:40 AM 60.8°F16.0°C 58.8°F14.9°C 93% 2.3 mph NNE3.7 kmh NNE 3.5 mph5.6 kmh 29.86 in1011.2 mb - 0.00 in0.0 mm 0.00 in0.0 mm
07:45 AM 60.8°F16.0°C 58.8°F14.9°C 93% 2.3 mph NE3.7 kmh NE 8.1 mph13.0 kmh 29.86 in1011.2 mb - 0.00 in0.0 mm 0.00 in0.0 mm
07:50 AM 60.9°F16.1°C 58.9°F14.9°C 93% 3.5 mph NE5.6 kmh NE 6.9 mph11.1 kmh 29.87 in1011.5 mb - 0.00 in0.0 mm 0.00 in0.0 mm
07:55 AM 60.9°F16.1°C 58.6°F14.8°C 92% 2.3 mph NE3.7 kmh NE 3.5 mph5.6 kmh 29.87 in1011.5 mb - 0.00 in0.0 mm 0.00 in0.0 mm
08:00 AM 61.0°F16.1°C 58.6°F14.8°C 92% 2.3 mph NE3.7 kmh NE 3.5 mph5.6 kmh 29.87 in1011.5 mb - 0.00 in0.0 mm 0.00 in0.0 mm
08:10 AM 61.2°F16.2°C 58.8°F14.9°C 92% 1.2 mph NNE1.9 kmh NNE 2.3 mph3.7 kmh 29.87 in1011.5 mb - 0.00 in0.0 mm 0.00 in0.0 mm
08:15 AM 61.3°F16.3°C 58.9°F14.9°C 92% 2.3 mph NNE3.7 kmh NNE 3.5 mph5.6 kmh 29.86 in1011.2 mb - 0.00 in0.0 mm 0.00 in0.0 mm
08:20 AM 61.3°F16.3°C 58.9°F14.9°C 92% 4.6 mph NNE7.4 kmh NNE 6.9 mph11.1 kmh 29.86 in1011.2 mb - 0.00 in0.0 mm 0.00 in0.0 mm
08:25 AM 61.3°F16.3°C 58.9°F14.9°C 92% 3.5 mph NE5.6 kmh NE 3.5 mph5.6 kmh 29.86 in1011.2 mb - 0.00 in0.0 mm 0.00 in0.0 mm
08:30 AM 61.3°F16.3°C 58.7°F14.8°C 91% 3.5 mph NE5.6 kmh NE 6.9 mph11.1 kmh 29.86 in1011.2 mb - 0.00 in0.0 mm 0.00 in0.0 mm
08:35 AM 61.4°F16.3°C 58.7°F14.8°C 91% 3.5 mph NNE5.6 kmh NNE 8.1 mph13.0 kmh 29.86 in1011.2 mb - 0.00 in0.0 mm 0.00 in0.0 mm
08:40 AM 61.5°F16.4°C 58.8°F14.9°C 91% 2.3 mph NE3.7 kmh NE 4.6 mph7.4 kmh 29.86 in1011.2 mb - 0.00 in0.0 mm 0.00 in0.0 mm
08:45 AM 61.7°F16.5°C 59.0°F15.0°C 91% 4.6 mph NE7.4 kmh NE 6.9 mph11.1 kmh 29.85 in1010.8 mb - 0.00 in0.0 mm 0.00 in0.0 mm
08:50 AM 61.7°F16.5°C 59.0°F15.0°C 91% 4.6 mph NE7.4 kmh NE 9.2 mph14.8 kmh 29.85 in1010.8 mb - 0.00 in0.0 mm 0.00 in0.0 mm
08:55 AM 61.6°F16.4°C 58.9°F14.9°C 91% 5.8 mph NE9.3 kmh NE 8.1 mph13.0 kmh 29.86 in1011.2 mb - 0.00 in0.0 mm 0.00 in0.0 mm
09:00 AM 61.6°F16.4°C 59.0°F15.0°C 91% 5.8 mph NE9.3 kmh NE 10.4 mph16.7 kmh 29.85 in1010.8 mb - 0.00 in0.0 mm 0.00 in0.0 mm
09:10 AM 61.7°F16.5°C 59.0°F15.0°C 91% 3.5 mph NE5.6 kmh NE 4.6 mph7.4 kmh 29.86 in1011.2 mb - 0.00 in0.0 mm 0.00 in0.0 mm
09:15 AM 61.7°F16.5°C 58.7°F14.8°C 90% 3.5 mph NE5.6 kmh NE 6.9 mph11.1 kmh 29.86 in1011.2 mb - 0.00 in0.0 mm 0.00 in0.0 mm
09:20 AM 61.8°F16.6°C 58.8°F14.9°C 90% 4.6 mph NE7.4 kmh NE 9.2 mph14.8 kmh 29.85 in1010.8 mb - 0.00 in0.0 mm 0.00 in0.0 mm
09:25 AM 61.9°F16.6°C 59.2°F15.1°C 91% 3.5 mph NE5.6 kmh NE 3.5 mph5.6 kmh 29.85 in1010.8 mb - 0.00 in0.0 mm 0.00 in0.0 mm
09:30 AM 62.0°F16.7°C 59.3°F15.2°C 91% 3.5 mph NE5.6 kmh NE 4.6 mph7.4 kmh 29.85 in1010.8 mb - 0.00 in0.0 mm 0.00 in0.0 mm
09:35 AM 62.0°F16.7°C 59.0°F15.0°C 90% 3.5 mph NE5.6 kmh NE 4.6 mph7.4 kmh 29.86 in1011.2 mb - 0.00 in0.0 mm 0.00 in0.0 mm
09:40 AM 61.9°F16.6°C 58.9°F14.9°C 90% 3.5 mph NE5.6 kmh NE 5.8 mph9.3 kmh 29.86 in1011.2 mb - 0.00 in0.0 mm 0.00 in0.0 mm
09:45 AM 61.8°F16.6°C 58.8°F14.9°C 90% 3.5 mph NE5.6 kmh NE 4.6 mph7.4 kmh 29.86 in1011.2 mb - 0.00 in0.0 mm 0.00 in0.0 mm
09:50 AM 61.9°F16.6°C 59.3°F15.2°C 91% 2.3 mph ENE3.7 kmh ENE 3.5 mph5.6 kmh 29.86 in1011.2 mb - 0.00 in0.0 mm 0.00 in0.0 mm
09:55 AM 62.2°F16.8°C 59.5°F15.3°C 91% 2.3 mph NE3.7 kmh NE 3.5 mph5.6 kmh 29.86 in1011.2 mb - 0.00 in0.0 mm 0.00 in0.0 mm
10:00 AM 62.3°F16.8°C 59.6°F15.3°C 91% 2.3 mph NE3.7 kmh NE 3.5 mph5.6 kmh 29.86 in1011.2 mb - 0.00 in0.0 mm 0.00 in0.0 mm
10:10 AM 62.3°F16.8°C 59.6°F15.3°C 91% 2.3 mph NE3.7 kmh NE 3.5 mph5.6 kmh 29.86 in1011.2 mb - 0.00 in0.0 mm 0.00 in0.0 mm
10:15 AM 62.5°F16.9°C 59.8°F15.4°C 91% 2.3 mph NNE3.7 kmh NNE 3.5 mph5.6 kmh 29.85 in1010.8 mb - 0.00 in0.0 mm 0.00 in0.0 mm
10:20 AM 62.9°F17.2°C 60.5°F15.8°C 92% 2.3 mph NNE3.7 kmh NNE 3.5 mph5.6 kmh 29.85 in1010.8 mb - 0.00 in0.0 mm 0.00 in0.0 mm
10:25 AM 62.9°F17.2°C 59.9°F15.5°C 90% 1.2 mph ENE1.9 kmh ENE 2.3 mph3.7 kmh 29.85 in1010.8 mb - 0.00 in0.0 mm 0.00 in0.0 mm
10:30 AM 62.8°F17.1°C 59.8°F15.4°C 90% 1.2 mph ENE1.9 kmh ENE 2.3 mph3.7 kmh 29.85 in1010.8 mb - 0.00 in0.0 mm 0.00 in0.0 mm
10:35 AM 62.7°F17.1°C 59.7°F15.4°C 90% 1.2 mph E1.9 kmh E 2.3 mph3.7 kmh 29.85 in1010.8 mb - 0.00 in0.0 mm 0.00 in0.0 mm
10:40 AM 62.8°F17.1°C 59.5°F15.3°C 89% Calm Calm 2.3 mph3.7 kmh 29.85 in1010.8 mb - 0.00 in0.0 mm 0.00 in0.0 mm
10:45 AM 63.2°F17.3°C 60.2°F15.7°C 90% 1.2 mph NE1.9 kmh NE 3.5 mph5.6 kmh 29.84 in1010.5 mb - 0.00 in0.0 mm 0.00 in0.0 mm
10:50 AM 63.4°F17.4°C 60.1°F15.6°C 89% 1.2 mph NE1.9 kmh NE 2.3 mph3.7 kmh 29.85 in1010.8 mb - 0.00 in0.0 mm 0.00 in0.0 mm
10:55 AM 63.3°F17.4°C 60.0°F15.6°C 89% 1.2 mph E1.9 kmh E 3.5 mph5.6 kmh 29.84 in1010.5 mb - 0.00 in0.0 mm 0.00 in0.0 mm
11:00 AM 63.1°F17.3°C 59.8°F15.4°C 89% 4.6 mph NE7.4 kmh NE 4.6 mph7.4 kmh 29.84 in1010.5 mb - 0.00 in0.0 mm 0.00 in0.0 mm
11:10 AM 63.5°F17.5°C 60.2°F15.7°C 89% 3.5 mph NE5.6 kmh NE 5.8 mph9.3 kmh 29.84 in1010.5 mb - 0.00 in0.0 mm 0.00 in0.0 mm
11:15 AM 63.2°F17.3°C 59.9°F15.5°C 89% 3.5 mph ENE5.6 kmh ENE 3.5 mph5.6 kmh 29.84 in1010.5 mb - 0.00 in0.0 mm 0.00 in0.0 mm
11:20 AM 63.0°F17.2°C 59.7°F15.4°C 89% 4.6 mph E7.4 kmh E 5.8 mph9.3 kmh 29.84 in1010.5 mb - 0.00 in0.0 mm 0.00 in0.0 mm
11:25 AM 63.0°F17.2°C 60.0°F15.6°C 90% 2.3 mph E3.7 kmh E 3.5 mph5.6 kmh 29.84 in1010.5 mb - 0.00 in0.0 mm 0.00 in0.0 mm
11:30 AM 63.1°F17.3°C 60.2°F15.7°C 90% 3.5 mph NE5.6 kmh NE 4.6 mph7.4 kmh 29.84 in1010.5 mb - 0.00 in0.0 mm 0.00 in0.0 mm
11:35 AM 63.1°F17.3°C 59.8°F15.4°C 89% 3.5 mph ENE5.6 kmh ENE 6.9 mph11.1 kmh 29.84 in1010.5 mb - 0.00 in0.0 mm 0.00 in0.0 mm
11:40 AM 63.5°F17.5°C 60.2°F15.7°C 89% 4.6 mph E7.4 kmh E 9.2 mph14.8 kmh 29.84 in1010.5 mb - 0.00 in0.0 mm 0.00 in0.0 mm
11:45 AM 63.5°F17.5°C 60.2°F15.7°C 89% 2.3 mph E3.7 kmh E 4.6 mph7.4 kmh 29.84 in1010.5 mb - 0.00 in0.0 mm 0.00 in0.0 mm
11:50 AM 63.5°F17.5°C 60.2°F15.7°C 89% 3.5 mph ENE5.6 kmh ENE 6.9 mph11.1 kmh 29.83 in1010.2 mb - 0.00 in0.0 mm 0.00 in0.0 mm
11:55 AM 63.7°F17.6°C 60.4°F15.8°C 89% 2.3 mph NE3.7 kmh NE 3.5 mph5.6 kmh 29.83 in1010.2 mb - 0.00 in0.0 mm 0.00 in0.0 mm
12:00 PM 64.4°F18.0°C 60.4°F15.8°C 87% 3.5 mph NE5.6 kmh NE 4.6 mph7.4 kmh 29.83 in1010.2 mb - 0.00 in0.0 mm 0.00 in0.0 mm
12:10 PM 64.5°F18.1°C 60.2°F15.7°C 86% 3.5 mph E5.6 kmh E 5.8 mph9.3 kmh 29.83 in1010.2 mb - 0.00 in0.0 mm 0.00 in0.0 mm
12:15 PM 64.5°F18.1°C 60.6°F15.9°C 87% 3.5 mph ENE5.6 kmh ENE 6.9 mph11.1 kmh 29.83 in1010.2 mb - 0.00 in0.0 mm 0.00 in0.0 mm
12:20 PM 64.6°F18.1°C 60.0°F15.6°C 85% 3.5 mph ENE5.6 kmh ENE 6.9 mph11.1 kmh 29.83 in1010.2 mb - 0.01 in0.3 mm 0.01 in0.3 mm
12:25 PM 64.5°F18.1°C 60.2°F15.7°C 86% 3.5 mph E5.6 kmh E 4.6 mph7.4 kmh 29.83 in1010.2 mb - 0.01 in0.3 mm 0.01 in0.3 mm
12:30 PM 64.7°F18.2°C 60.4°F15.8°C 86% 2.3 mph E3.7 kmh E 3.5 mph5.6 kmh 29.82 in1009.8 mb - 0.01 in0.3 mm 0.01 in0.3 mm
12:35 PM 65.2°F18.4°C 60.9°F16.1°C 86% 2.3 mph ENE3.7 kmh ENE 3.5 mph5.6 kmh 29.81 in1009.5 mb - 0.01 in0.3 mm 0.01 in0.3 mm
12:40 PM 65.9°F18.8°C 60.9°F16.1°C 84% 5.8 mph NE9.3 kmh NE 9.2 mph14.8 kmh 29.81 in1009.5 mb - 0.01 in0.3 mm 0.01 in0.3 mm
12:45 PM 65.5°F18.6°C 60.5°F15.8°C 84% 4.6 mph NE7.4 kmh NE 8.1 mph13.0 kmh 29.81 in1009.5 mb - 0.01 in0.3 mm 0.01 in0.3 mm
12:50 PM 65.4°F18.6°C 60.8°F16.0°C 85% 2.3 mph E3.7 kmh E 3.5 mph5.6 kmh 29.81 in1009.5 mb - 0.01 in0.3 mm 0.01 in0.3 mm
12:55 PM 65.8°F18.8°C 60.8°F16.0°C 84% 4.6 mph E7.4 kmh E 9.2 mph14.8 kmh 29.81 in1009.5 mb - 0.01 in0.3 mm 0.01 in0.3 mm
01:00 PM 65.1°F18.4°C 60.5°F15.8°C 85% 3.5 mph ENE5.6 kmh ENE 5.8 mph9.3 kmh 29.81 in1009.5 mb - 0.01 in0.3 mm 0.01 in0.3 mm
01:10 PM 64.5°F18.1°C 60.2°F15.7°C 86% 5.8 mph ENE9.3 kmh ENE 8.1 mph13.0 kmh 29.81 in1009.5 mb - 0.01 in0.3 mm 0.01 in0.3 mm
01:15 PM 64.5°F18.1°C 60.2°F15.7°C 86% 5.8 mph ENE9.3 kmh ENE 9.2 mph14.8 kmh 29.80 in1009.1 mb - 0.01 in0.3 mm 0.01 in0.3 mm
01:20 PM 64.4°F18.0°C 60.1°F15.6°C 86% 5.8 mph ENE9.3 kmh ENE 11.5 mph18.5 kmh 29.80 in1009.1 mb - 0.00 in0.0 mm 0.01 in0.3 mm
01:25 PM 64.8°F18.2°C 60.5°F15.8°C 86% 4.6 mph ENE7.4 kmh ENE 11.5 mph18.5 kmh 29.79 in1008.8 mb - 0.00 in0.0 mm 0.01 in0.3 mm
01:30 PM 64.7°F18.2°C 60.4°F15.8°C 86% 5.8 mph NE9.3 kmh NE 8.1 mph13.0 kmh 29.79 in1008.8 mb - 0.00 in0.0 mm 0.01 in0.3 mm
01:35 PM 64.8°F18.2°C 60.6°F15.9°C 86% 4.6 mph NE7.4 kmh NE 4.6 mph7.4 kmh 29.79 in1008.8 mb - 0.00 in0.0 mm 0.01 in0.3 mm
01:40 PM 64.5°F18.1°C 60.5°F15.8°C 87% 3.5 mph NE5.6 kmh NE 8.1 mph13.0 kmh 29.79 in1008.8 mb - 0.00 in0.0 mm 0.01 in0.3 mm
01:45 PM 64.7°F18.2°C 60.4°F15.8°C 86% 3.5 mph NE5.6 kmh NE 8.1 mph13.0 kmh 29.78 in1008.5 mb - 0.00 in0.0 mm 0.01 in0.3 mm
01:50 PM 64.8°F18.2°C 60.5°F15.8°C 86% 2.3 mph E3.7 kmh E 3.5 mph5.6 kmh 29.79 in1008.8 mb - 0.00 in0.0 mm 0.01 in0.3 mm
01:55 PM 64.2°F17.9°C 60.0°F15.6°C 86% 5.8 mph E9.3 kmh E 10.4 mph16.7 kmh 29.80 in1009.1 mb - 0.00 in0.0 mm 0.01 in0.3 mm
02:00 PM 63.2°F17.3°C 59.3°F15.2°C 87% 5.8 mph E9.3 kmh E 9.2 mph14.8 kmh 29.80 in1009.1 mb - 0.00 in0.0 mm 0.01 in0.3 mm
02:10 PM 63.0°F17.2°C 59.7°F15.4°C 89% 3.5 mph E5.6 kmh E 9.2 mph14.8 kmh 29.79 in1008.8 mb - 0.00 in0.0 mm 0.01 in0.3 mm
02:15 PM 63.1°F17.3°C 59.8°F15.4°C 89% 5.8 mph ENE9.3 kmh ENE 10.4 mph16.7 kmh 29.79 in1008.8 mb - 0.00 in0.0 mm 0.01 in0.3 mm
02:20 PM 63.2°F17.3°C 59.6°F15.3°C 88% 5.8 mph E9.3 kmh E 10.4 mph16.7 kmh 29.79 in1008.8 mb - 0.00 in0.0 mm 0.01 in0.3 mm
02:25 PM 63.4°F17.4°C 59.4°F15.2°C 87% 5.8 mph E9.3 kmh E 9.2 mph14.8 kmh 29.80 in1009.1 mb - 0.00 in0.0 mm 0.01 in0.3 mm
02:30 PM 63.4°F17.4°C 59.5°F15.3°C 87% 5.8 mph E9.3 kmh E 9.2 mph14.8 kmh 29.80 in1009.1 mb - 0.00 in0.0 mm 0.01 in0.3 mm
02:35 PM 63.5°F17.5°C 59.6°F15.3°C 87% 4.6 mph E7.4 kmh E 10.4 mph16.7 kmh 29.79 in1008.8 mb - 0.00 in0.0 mm 0.01 in0.3 mm
02:40 PM 63.7°F17.6°C 59.8°F15.4°C 87% 3.5 mph E5.6 kmh E 8.1 mph13.0 kmh 29.79 in1008.8 mb - 0.00 in0.0 mm 0.01 in0.3 mm
02:45 PM 63.8°F17.7°C 59.5°F15.3°C 86% 5.8 mph E9.3 kmh E 11.5 mph18.5 kmh 29.79 in1008.8 mb - 0.00 in0.0 mm 0.01 in0.3 mm
02:50 PM 63.9°F17.7°C 59.3°F15.2°C 85% 6.9 mph E11.1 kmh E 10.4 mph16.7 kmh 29.79 in1008.8 mb - 0.00 in0.0 mm 0.01 in0.3 mm
02:55 PM 64.2°F17.9°C 59.6°F15.3°C 85% 5.8 mph E9.3 kmh E 8.1 mph13.0 kmh 29.79 in1008.8 mb - 0.00 in0.0 mm 0.01 in0.3 mm
03:00 PM 64.3°F17.9°C 59.7°F15.4°C 85% 5.8 mph E9.3 kmh E 10.4 mph16.7 kmh 29.79 in1008.8 mb - 0.00 in0.0 mm 0.01 in0.3 mm
03:10 PM 64.2°F17.9°C 59.6°F15.3°C 85% 4.6 mph ENE7.4 kmh ENE 9.2 mph14.8 kmh 29.79 in1008.8 mb - 0.00 in0.0 mm 0.01 in0.3 mm
03:15 PM 64.1°F17.8°C 59.5°F15.3°C 85% 6.9 mph E11.1 kmh E 10.4 mph16.7 kmh 29.79 in1008.8 mb - 0.00 in0.0 mm 0.01 in0.3 mm
03:20 PM 63.8°F17.7°C 59.2°F15.1°C 85% 4.6 mph E7.4 kmh E 6.9 mph11.1 kmh 29.79 in1008.8 mb - 0.00 in0.0 mm 0.01 in0.3 mm
03:25 PM 63.8°F17.7°C 59.5°F15.3°C 86% 3.5 mph E5.6 kmh E 8.1 mph13.0 kmh 29.79 in1008.8 mb - 0.00 in0.0 mm 0.01 in0.3 mm
03:30 PM 63.7°F17.6°C 59.1°F15.1°C 85% 5.8 mph E9.3 kmh E 9.2 mph14.8 kmh 29.78 in1008.5 mb - 0.00 in0.0 mm 0.01 in0.3 mm
03:35 PM 63.7°F17.6°C 59.4°F15.2°C 86% 6.9 mph ENE11.1 kmh ENE 10.4 mph16.7 kmh 29.78 in1008.5 mb - 0.00 in0.0 mm 0.01 in0.3 mm
03:40 PM 63.7°F17.6°C 59.5°F15.3°C 86% 4.6 mph ENE7.4 kmh ENE 11.5 mph18.5 kmh 29.78 in1008.5 mb - 0.00 in0.0 mm 0.01 in0.3 mm
03:45 PM 63.6°F17.6°C 59.3°F15.2°C 86% 8.1 mph ENE13.0 kmh ENE 11.5 mph18.5 kmh 29.78 in1008.5 mb - 0.00 in0.0 mm 0.01 in0.3 mm
03:50 PM 63.3°F17.4°C 59.0°F15.0°C 86% 5.8 mph ENE9.3 kmh ENE 11.5 mph18.5 kmh 29.77 in1008.1 mb - 0.00 in0.0 mm 0.01 in0.3 mm
03:55 PM 63.2°F17.3°C 59.3°F15.2°C 87% 2.3 mph E3.7 kmh E 3.5 mph5.6 kmh 29.77 in1008.1 mb - 0.00 in0.0 mm 0.01 in0.3 mm
04:00 PM 63.2°F17.3°C 58.9°F14.9°C 86% 5.8 mph E9.3 kmh E 8.1 mph13.0 kmh 29.77 in1008.1 mb - 0.00 in0.0 mm 0.01 in0.3 mm
04:10 PM 62.7°F17.1°C 58.8°F14.9°C 87% 6.9 mph E11.1 kmh E 10.4 mph16.7 kmh 29.77 in1008.1 mb - 0.00 in0.0 mm 0.01 in0.3 mm
04:15 PM 62.6°F17.0°C 58.7°F14.8°C 87% 4.6 mph ENE7.4 kmh ENE 8.1 mph13.0 kmh 29.77 in1008.1 mb - 0.00 in0.0 mm 0.01 in0.3 mm
04:20 PM 62.5°F16.9°C 58.6°F14.8°C 87% 6.9 mph E11.1 kmh E 10.4 mph16.7 kmh 29.76 in1007.8 mb - 0.00 in0.0 mm 0.01 in0.3 mm
04:25 PM 62.4°F16.9°C 58.5°F14.7°C 87% 5.8 mph E9.3 kmh E 10.4 mph16.7 kmh 29.76 in1007.8 mb - 0.00 in0.0 mm 0.01 in0.3 mm
04:30 PM 62.5°F16.9°C 58.9°F14.9°C 88% 3.5 mph E5.6 kmh E 6.9 mph11.1 kmh 29.76 in1007.8 mb - 0.00 in0.0 mm 0.01 in0.3 mm
04:35 PM 62.5°F16.9°C 58.6°F14.8°C 87% 2.3 mph E3.7 kmh E 10.4 mph16.7 kmh 29.76 in1007.8 mb - 0.00 in0.0 mm 0.01 in0.3 mm
04:40 PM 62.3°F16.8°C 58.4°F14.7°C 87% 4.6 mph E7.4 kmh E 6.9 mph11.1 kmh 29.76 in1007.8 mb - 0.00 in0.0 mm 0.01 in0.3 mm
04:45 PM 62.2°F16.8°C 58.2°F14.6°C 87% 4.6 mph NE7.4 kmh NE 9.2 mph14.8 kmh 29.74 in1007.1 mb - 0.00 in0.0 mm 0.01 in0.3 mm
04:50 PM 62.1°F16.7°C 58.5°F14.7°C 88% 4.6 mph E7.4 kmh E 10.4 mph16.7 kmh 29.74 in1007.1 mb - 0.00 in0.0 mm 0.01 in0.3 mm
04:55 PM 62.0°F16.7°C 58.4°F14.7°C 88% 1.2 mph ENE1.9 kmh ENE 3.5 mph5.6 kmh 29.75 in1007.5 mb - 0.00 in0.0 mm 0.01 in0.3 mm
05:00 PM 61.9°F16.6°C 58.3°F14.6°C 88% 4.6 mph E7.4 kmh E 6.9 mph11.1 kmh 29.74 in1007.1 mb - 0.00 in0.0 mm 0.01 in0.3 mm
05:10 PM 61.7°F16.5°C 58.1°F14.5°C 88% 3.5 mph ESE5.6 kmh ESE 6.9 mph11.1 kmh 29.76 in1007.8 mb - 0.00 in0.0 mm 0.01 in0.3 mm
05:15 PM 61.6°F16.4°C 58.0°F14.4°C 88% 8.1 mph SSE13.0 kmh SSE 11.5 mph18.5 kmh 29.80 in1009.1 mb - 0.00 in0.0 mm 0.01 in0.3 mm
05:20 PM 61.5°F16.4°C 58.2°F14.6°C 89% 11.5 mph SE18.5 kmh SE 12.7 mph20.4 kmh 29.82 in1009.8 mb - 0.02 in0.5 mm 0.03 in0.8 mm
05:25 PM 61.0°F16.1°C 57.7°F14.3°C 89% 3.5 mph E5.6 kmh E 4.6 mph7.4 kmh 29.78 in1008.5 mb - 0.13 in3.3 mm 0.14 in3.6 mm
05:30 PM 60.6°F15.9°C 57.7°F14.3°C 90% 3.5 mph ENE5.6 kmh ENE 6.9 mph11.1 kmh 29.76 in1007.8 mb - 0.20 in5.1 mm 0.21 in5.3 mm
05:35 PM 60.3°F15.7°C 57.4°F14.1°C 90% 3.5 mph SE5.6 kmh SE 4.6 mph7.4 kmh 29.77 in1008.1 mb - 0.28 in7.1 mm 0.29 in7.4 mm
05:40 PM 60.2°F15.7°C 57.5°F14.2°C 91% 4.6 mph E7.4 kmh E 3.5 mph5.6 kmh 29.77 in1008.1 mb - 0.31 in7.9 mm 0.32 in8.1 mm
05:45 PM 60.1°F15.6°C 57.5°F14.2°C 91% 2.3 mph ESE3.7 kmh ESE 4.6 mph7.4 kmh 29.77 in1008.1 mb - 0.31 in7.9 mm 0.32 in8.1 mm
05:50 PM 60.0°F15.6°C 57.7°F14.3°C 92% 3.5 mph ESE5.6 kmh ESE 6.9 mph11.1 kmh 29.77 in1008.1 mb - 0.31 in7.9 mm 0.32 in8.1 mm
05:55 PM 60.0°F15.6°C 57.7°F14.3°C 92% 2.3 mph ESE3.7 kmh ESE 6.9 mph11.1 kmh 29.76 in1007.8 mb - 0.31 in7.9 mm 0.32 in8.1 mm
06:00 PM 60.1°F15.6°C 57.8°F14.3°C 92% 2.3 mph ESE3.7 kmh ESE 4.6 mph7.4 kmh 29.77 in1008.1 mb - 0.31 in7.9 mm 0.32 in8.1 mm
06:10 PM 60.1°F15.6°C 57.8°F14.3°C 92% 2.3 mph ESE3.7 kmh ESE 3.5 mph5.6 kmh 29.76 in1007.8 mb - 0.31 in7.9 mm 0.32 in8.1 mm
06:15 PM 60.2°F15.7°C 57.9°F14.4°C 92% 3.5 mph E5.6 kmh E 5.8 mph9.3 kmh 29.76 in1007.8 mb - 0.32 in8.1 mm 0.33 in8.4 mm
06:20 PM 60.2°F15.7°C 57.9°F14.4°C 92% 4.6 mph E7.4 kmh E 5.8 mph9.3 kmh 29.76 in1007.8 mb - 0.34 in8.6 mm 0.35 in8.9 mm
06:25 PM 60.2°F15.7°C 57.9°F14.4°C 92% 2.3 mph ESE3.7 kmh ESE 4.6 mph7.4 kmh 29.76 in1007.8 mb - 0.24 in6.1 mm 0.36 in9.1 mm
06:30 PM 60.3°F15.7°C 57.9°F14.4°C 92% 3.5 mph E5.6 kmh E 5.8 mph9.3 kmh 29.76 in1007.8 mb - 0.17 in4.3 mm 0.36 in9.1 mm
06:35 PM 60.3°F15.7°C 58.0°F14.4°C 92% 3.5 mph SE5.6 kmh SE 5.8 mph9.3 kmh 29.77 in1008.1 mb - 0.09 in2.3 mm 0.37 in9.4 mm
06:40 PM 60.4°F15.8°C 58.0°F14.4°C 92% 1.2 mph E1.9 kmh E 3.5 mph5.6 kmh 29.76 in1007.8 mb - 0.06 in1.5 mm 0.37 in9.4 mm
06:45 PM 60.4°F15.8°C 58.0°F14.4°C 92% 2.3 mph SE3.7 kmh SE 3.5 mph5.6 kmh 29.76 in1007.8 mb - 0.06 in1.5 mm 0.37 in9.4 mm
06:50 PM 60.3°F15.7°C 58.0°F14.4°C 92% 3.5 mph SSE5.6 kmh SSE 6.9 mph11.1 kmh 29.77 in1008.1 mb - 0.06 in1.5 mm 0.37 in9.4 mm
06:55 PM 60.3°F15.7°C 58.0°F14.4°C 92% 3.5 mph S5.6 kmh S 3.5 mph5.6 kmh 29.77 in1008.1 mb - 0.06 in1.5 mm 0.37 in9.4 mm
07:00 PM 60.3°F15.7°C 58.3°F14.6°C 93% 2.3 mph SE3.7 kmh SE 3.5 mph5.6 kmh 29.76 in1007.8 mb - 0.06 in1.5 mm 0.37 in9.4 mm
07:10 PM 60.4°F15.8°C 58.4°F14.7°C 93% 3.5 mph SSE5.6 kmh SSE 4.6 mph7.4 kmh 29.77 in1008.1 mb - 0.06 in1.5 mm 0.38 in9.7 mm
07:15 PM 60.4°F15.8°C 58.4°F14.7°C 93% 3.5 mph SE5.6 kmh SE 3.5 mph5.6 kmh 29.77 in1008.1 mb - 0.05 in1.3 mm 0.38 in9.7 mm
07:20 PM 60.4°F15.8°C 58.4°F14.7°C 93% 3.5 mph SE5.6 kmh SE 6.9 mph11.1 kmh 29.76 in1007.8 mb - 0.02 in0.5 mm 0.38 in9.7 mm
07:25 PM 60.4°F15.8°C 58.4°F14.7°C 93% 2.3 mph SE3.7 kmh SE 3.5 mph5.6 kmh 29.75 in1007.5 mb - 0.02 in0.5 mm 0.38 in9.7 mm
07:30 PM 60.4°F15.8°C 58.3°F14.6°C 93% 4.6 mph SE7.4 kmh SE 6.9 mph11.1 kmh 29.75 in1007.5 mb - 0.02 in0.5 mm 0.38 in9.7 mm
07:35 PM 60.3°F15.7°C 58.3°F14.6°C 93% 2.3 mph ESE3.7 kmh ESE 3.5 mph5.6 kmh 29.75 in1007.5 mb - 0.01 in0.3 mm 0.38 in9.7 mm
07:40 PM 60.3°F15.7°C 58.3°F14.6°C 93% 3.5 mph ESE5.6 kmh ESE 3.5 mph5.6 kmh 29.75 in1007.5 mb - 0.01 in0.3 mm 0.38 in9.7 mm
07:45 PM 60.3°F15.7°C 58.3°F14.6°C 93% 1.2 mph ESE1.9 kmh ESE 2.3 mph3.7 kmh 29.75 in1007.5 mb - 0.01 in0.3 mm 0.38 in9.7 mm
07:55 PM 60.3°F15.7°C 58.3°F14.6°C 93% 4.6 mph SE7.4 kmh SE 6.9 mph11.1 kmh 29.74 in1007.1 mb - 0.01 in0.3 mm 0.38 in9.7 mm
08:00 PM 60.2°F15.7°C 58.2°F14.6°C 93% 2.3 mph E3.7 kmh E 3.5 mph5.6 kmh 29.73 in1006.8 mb - 0.01 in0.3 mm 0.38 in9.7 mm
08:10 PM 60.2°F15.7°C 58.1°F14.5°C 93% 3.5 mph NE5.6 kmh NE 5.8 mph9.3 kmh 29.70 in1005.8 mb - 0.01 in0.3 mm 0.39 in9.9 mm
08:15 PM 60.0°F15.6°C 58.0°F14.4°C 93% 4.6 mph NE7.4 kmh NE 10.4 mph16.7 kmh 29.69 in1005.4 mb - 0.01 in0.3 mm 0.39 in9.9 mm
08:20 PM 59.9°F15.5°C 57.9°F14.4°C 93% 5.8 mph NE9.3 kmh NE 8.1 mph13.0 kmh 29.70 in1005.8 mb - 0.01 in0.3 mm 0.39 in9.9 mm
08:25 PM 59.9°F15.5°C 57.9°F14.4°C 93% 4.6 mph E7.4 kmh E 9.2 mph14.8 kmh 29.70 in1005.8 mb - 0.01 in0.3 mm 0.39 in9.9 mm
08:30 PM 59.9°F15.5°C 57.9°F14.4°C 93% 3.5 mph E5.6 kmh E 6.9 mph11.1 kmh 29.72 in1006.4 mb - 0.01 in0.3 mm 0.39 in9.9 mm
08:35 PM 59.8°F15.4°C 57.8°F14.3°C 93% 5.8 mph S9.3 kmh S 9.2 mph14.8 kmh 29.73 in1006.8 mb - 0.01 in0.3 mm 0.39 in9.9 mm
08:40 PM 59.8°F15.4°C 57.8°F14.3°C 93% 6.9 mph S11.1 kmh S 10.4 mph16.7 kmh 29.74 in1007.1 mb - 0.01 in0.3 mm 0.39 in9.9 mm
08:45 PM 59.9°F15.5°C 57.9°F14.4°C 93% 4.6 mph S7.4 kmh S 8.1 mph13.0 kmh 29.74 in1007.1 mb - 0.01 in0.3 mm 0.39 in9.9 mm
08:50 PM 59.9°F15.5°C 57.9°F14.4°C 93% 4.6 mph SSE7.4 kmh SSE 10.4 mph16.7 kmh 29.75 in1007.5 mb - 0.01 in0.3 mm 0.39 in9.9 mm
08:55 PM 59.9°F15.5°C 57.9°F14.4°C 93% 6.9 mph S11.1 kmh S 10.4 mph16.7 kmh 29.75 in1007.5 mb - 0.01 in0.3 mm 0.39 in9.9 mm
09:00 PM 59.9°F15.5°C 57.9°F14.4°C 93% 6.9 mph S11.1 kmh S 11.5 mph18.5 kmh 29.76 in1007.8 mb - 0.01 in0.3 mm 0.39 in9.9 mm
09:10 PM 60.0°F15.6°C 58.0°F14.4°C 93% 6.9 mph S11.1 kmh S 9.2 mph14.8 kmh 29.77 in1008.1 mb - 0.00 in0.0 mm 0.39 in9.9 mm
09:15 PM 60.1°F15.6°C 58.0°F14.4°C 93% 5.8 mph SSE9.3 kmh SSE 9.2 mph14.8 kmh 29.77 in1008.1 mb - 0.00 in0.0 mm 0.39 in9.9 mm
09:20 PM 60.1°F15.6°C 58.1°F14.5°C 93% 5.8 mph SSE9.3 kmh SSE 8.1 mph13.0 kmh 29.77 in1008.1 mb - 0.00 in0.0 mm 0.39 in9.9 mm
09:25 PM 60.1°F15.6°C 58.1°F14.5°C 93% 5.8 mph SE9.3 kmh SE 10.4 mph16.7 kmh 29.77 in1008.1 mb - 0.00 in0.0 mm 0.39 in9.9 mm
09:30 PM 60.1°F15.6°C 58.1°F14.5°C 93% 4.6 mph SSE7.4 kmh SSE 5.8 mph9.3 kmh 29.77 in1008.1 mb - 0.00 in0.0 mm 0.39 in9.9 mm
09:35 PM 60.1°F15.6°C 58.1°F14.5°C 93% 5.8 mph SSE9.3 kmh SSE 9.2 mph14.8 kmh 29.77 in1008.1 mb - 0.00 in0.0 mm 0.39 in9.9 mm
09:40 PM 60.1°F15.6°C 58.1°F14.5°C 93% 5.8 mph SSE9.3 kmh SSE 6.9 mph11.1 kmh 29.77 in1008.1 mb - 0.00 in0.0 mm 0.39 in9.9 mm
09:45 PM 60.1°F15.6°C 58.4°F14.7°C 94% 3.5 mph SSE5.6 kmh SSE 4.6 mph7.4 kmh 29.77 in1008.1 mb - 0.00 in0.0 mm 0.39 in9.9 mm
09:50 PM 60.1°F15.6°C 58.4°F14.7°C 94% 3.5 mph SSE5.6 kmh SSE 5.8 mph9.3 kmh 29.77 in1008.1 mb - 0.00 in0.0 mm 0.39 in9.9 mm
09:55 PM 60.1°F15.6°C 58.4°F14.7°C 94% 4.6 mph SSE7.4 kmh SSE 5.8 mph9.3 kmh 29.77 in1008.1 mb - 0.00 in0.0 mm 0.39 in9.9 mm
10:00 PM 60.1°F15.6°C 58.4°F14.7°C 94% 5.8 mph SSE9.3 kmh SSE 8.1 mph13.0 kmh 29.77 in1008.1 mb - 0.00 in0.0 mm 0.39 in9.9 mm
10:10 PM 60.2°F15.7°C 58.5°F14.7°C 94% 3.5 mph S5.6 kmh S 4.6 mph7.4 kmh 29.77 in1008.1 mb - 0.00 in0.0 mm 0.39 in9.9 mm
10:15 PM 60.2°F15.7°C 58.5°F14.7°C 94% 4.6 mph S7.4 kmh S 6.9 mph11.1 kmh 29.77 in1008.1 mb - 0.00 in0.0 mm 0.39 in9.9 mm
10:20 PM 60.3°F15.7°C 58.6°F14.8°C 94% 3.5 mph S5.6 kmh S 5.8 mph9.3 kmh 29.77 in1008.1 mb - 0.00 in0.0 mm 0.39 in9.9 mm
10:25 PM 60.4°F15.8°C 58.7°F14.8°C 94% 3.5 mph S5.6 kmh S 8.1 mph13.0 kmh 29.77 in1008.1 mb - 0.00 in0.0 mm 0.39 in9.9 mm
10:30 PM 60.6°F15.9°C 58.8°F14.9°C 94% 8.1 mph SSW13.0 kmh SSW 10.4 mph16.7 kmh 29.77 in1008.1 mb - 0.00 in0.0 mm 0.39 in9.9 mm
10:35 PM 60.7°F15.9°C 59.0°F15.0°C 94% 5.8 mph SSW9.3 kmh SSW 6.9 mph11.1 kmh 29.77 in1008.1 mb - 0.00 in0.0 mm 0.39 in9.9 mm
10:40 PM 60.9°F16.1°C 59.2°F15.1°C 94% 4.6 mph SSW7.4 kmh SSW 9.2 mph14.8 kmh 29.77 in1008.1 mb - 0.00 in0.0 mm 0.39 in9.9 mm
10:45 PM 61.1°F16.2°C 59.4°F15.2°C 94% 6.9 mph SSW11.1 kmh SSW 11.5 mph18.5 kmh 29.77 in1008.1 mb - 0.00 in0.0 mm 0.39 in9.9 mm
10:50 PM 61.3°F16.3°C 59.5°F15.3°C 94% 4.6 mph SSW7.4 kmh SSW 6.9 mph11.1 kmh 29.77 in1008.1 mb - 0.00 in0.0 mm 0.39 in9.9 mm
10:55 PM 61.5°F16.4°C 59.7°F15.4°C 94% 4.6 mph SSW7.4 kmh SSW 6.9 mph11.1 kmh 29.77 in1008.1 mb - 0.00 in0.0 mm 0.39 in9.9 mm
11:00 PM 61.5°F16.4°C 59.8°F15.4°C 94% 4.6 mph SSW7.4 kmh SSW 6.9 mph11.1 kmh 29.77 in1008.1 mb - 0.00 in0.0 mm 4.39 in111.5 mm
11:10 PM 61.7°F16.5°C 60.0°F15.6°C 94% 11.5 mph SW18.5 kmh SW 13.8 mph22.2 kmh 29.77 in1008.1 mb - 0.00 in0.0 mm 4.39 in111.5 mm
11:15 PM 61.6°F16.4°C 59.9°F15.5°C 94% 10.4 mph SW16.7 kmh SW 13.8 mph22.2 kmh 29.77 in1008.1 mb - 0.00 in0.0 mm 4.39 in111.5 mm
11:20 PM 61.6°F16.4°C 59.9°F15.5°C 94% 11.5 mph SW18.5 kmh SW 15.0 mph24.1 kmh 29.78 in1008.5 mb - 0.00 in0.0 mm 4.39 in111.5 mm
11:25 PM 61.3°F16.3°C 59.3°F15.2°C 93% 10.4 mph WSW16.7 kmh WSW 12.7 mph20.4 kmh 29.78 in1008.5 mb - 0.01 in0.3 mm 0.01 in0.3 mm
11:30 PM 60.7°F15.9°C 58.4°F14.7°C 92% 10.4 mph WSW16.7 kmh WSW 16.1 mph25.9 kmh 29.78 in1008.5 mb - 0.01 in0.3 mm 0.01 in0.3 mm
11:35 PM 59.9°F15.5°C 57.3°F14.1°C 91% 11.5 mph WSW18.5 kmh WSW 16.1 mph25.9 kmh 29.78 in1008.5 mb - 0.01 in0.3 mm 0.01 in0.3 mm
11:40 PM 59.4°F15.2°C 56.8°F13.8°C 91% 9.2 mph WSW14.8 kmh WSW 12.7 mph20.4 kmh 29.78 in1008.5 mb - 0.01 in0.3 mm 0.01 in0.3 mm
11:45 PM 59.2°F15.1°C 56.3°F13.5°C 90% 9.2 mph WSW14.8 kmh WSW 11.5 mph18.5 kmh 29.78 in1008.5 mb - 0.01 in0.3 mm 0.01 in0.3 mm
11:50 PM 59.0°F15.0°C 56.1°F13.4°C 90% 8.1 mph SW13.0 kmh SW 10.4 mph16.7 kmh 29.78 in1008.5 mb - 0.01 in0.3 mm 0.01 in0.3 mm
11:55 PM 58.8°F14.9°C 55.6°F13.1°C 89% 5.8 mph SW9.3 kmh SW 9.2 mph14.8 kmh 29.78 in1008.5 mb - 0.01 in0.3 mm 0.01 in0.3 mm